Platzwetter Flugplatz Wels

Flugwetter Linz LOWL

[Quelle: ADDS]
METAR
LOWL 070720Z AUTO 27011KT 9999 FEW050 SCT060 17/10 Q1021 NOSIG =
LOWL 070515Z 0706/0806 28012KT CAVOK TX18/0709Z TN14/0801Z TEMPO 0711/0716 28015G25KT SHRA FEW040CB PROB30 TEMPO 0716/0802 28015G25KT TSRA FEW020 BKN030 FEW030CB
TAF
LOWL 070515Z 0706/0806 28012KT CAVOK TX18/0709Z TN14/0801Z TEMPO 0711/0716 28015G25KT SHRA FEW040CB PROB30 TEMPO 0716/0802 28015G25KT TSRA FEW020 BKN030 FEW030CB =

Flugwetter Salzburg LOWS

[Quelle: ADDS]
METAR
LOWS 070720Z AUTO 33009KT 9999 FEW046 OVC050 17/11 Q1022 NOSIG =
LOWS 070515Z 0706/0806 32005KT 9999 FEW040 BKN050 TX18/0710Z TN13/0803Z TEMPO 0706/0710 32010KT -SHRA TEMPO 0710/0724 02015KT SHRA SCT050 FEW050CB PROB30 TEMPO 0712/0721 32015G25KT TSRA SCT040CB BKN050 TEMPO 0800/0806 RA FEW003 BKN012
TAF
LOWS 070515Z 0706/0806 32005KT 9999 FEW040 BKN050 TX18/0710Z TN13/0803Z TEMPO 0706/0710 32010KT -SHRA TEMPO 0710/0724 02015KT SHRA SCT050 FEW050CB PROB30 TEMPO 0712/0721 32015G25KT TSRA SCT040CB BKN050 TEMPO 0800/0806 RA FEW003 BKN012 =

Wind - Verlauf

Windrichtung - Verlauf

Temperatur - Verlauf

Relative Luftfeuchtigkeit - Verlauf

Luftdruck - Verlauf

Wir benutzen Cookies

Wir nutzen Cookies auf unserer Website. Einige von ihnen sind essenziell für den Betrieb der Seite, während andere uns helfen, diese Website und die Nutzererfahrung zu verbessern (Tracking Cookies). Sie können selbst entscheiden, ob Sie die Cookies zulassen möchten. Bitte beachten Sie, dass bei einer Ablehnung womöglich nicht mehr alle Funktionalitäten der Seite zur Verfügung stehen.